Time;durP1;ratioP1;P1;durP2;ratioP2;P2;SDS_P1;SDS_P2;PMS_P1;PMS_P2;Temp;Humidity;BMP_temperature;BMP_pressure;BME280_temperature;BME280_humidity;BME280_pressure;Samples;Min_cycle;Max_cycle;Signal;HPM_P1;HPM_P2
2021/07/12 00:01:32;;;;;;;8.23;5.68;;;;;;;;;;4401636;32;20224;-53
2021/07/12 00:03:57;;;;;;;6.28;4.97;;;;;;;;;;4402043;32;20229;-54
2021/07/12 00:06:23;;;;;;;6.75;5.72;;;;;;;;;;4400462;32;20305;-53
2021/07/12 00:08:48;;;;;;;12.57;5.70;;;;;;;;;;4401579;32;20361;-54
2021/07/12 00:11:14;;;;;;;7.20;5.30;;;;;;;;;;4401521;32;20247;-54
2021/07/12 00:13:39;;;;;;;7.90;5.30;;;;;;;;;;4401504;32;20226;-54
2021/07/12 00:16:04;;;;;;;7.32;5.45;;;;;;;;;;4401342;32;20241;-54
2021/07/12 00:18:31;;;;;;;8.07;5.72;;;;;;;;;;4390737;32;20254;-54
2021/07/12 00:20:56;;;;;;;10.43;6.10;;;;;;;;;;4386264;32;20308;-55
2021/07/12 00:23:22;;;;;;;10.63;5.45;;;;;;;;;;4386363;32;20306;-54
2021/07/12 00:25:47;;;;;;;11.25;5.45;;;;;;;;;;4386021;32;20218;-54
2021/07/12 00:28:13;;;;;;;17.40;6.05;;;;;;;;;;4386242;32;20233;-55
2021/07/12 00:30:38;;;;;;;8.48;6.18;;;;;;;;;;4394103;32;20229;-55
2021/07/12 00:33:04;;;;;;;9.32;6.70;;;;;;;;;;4401290;32;20699;-54
2021/07/12 00:35:29;;;;;;;10.48;6.15;;;;;;;;;;4401291;32;20367;-54
2021/07/12 00:37:55;;;;;;;11.73;7.82;;;;;;;;;;4400909;32;20626;-54
2021/07/12 00:40:25;;;;;;;20.48;8.05;;;;;;;;;;4401050;32;20279;-54
2021/07/12 00:42:51;;;;;;;11.55;7.80;;;;;;;;;;4400950;32;20779;-54
2021/07/12 00:45:22;;;;;;;14.95;8.30;;;;;;;;;;4401050;32;20814;-54
2021/07/12 00:47:50;;;;;;;12.80;8.80;;;;;;;;;;4400874;32;20240;-54
2021/07/12 00:50:17;;;;;;;15.23;8.25;;;;;;;;;;4400999;32;20350;-54
2021/07/12 00:52:42;;;;;;;13.02;7.72;;;;;;;;;;4400907;32;20305;-54
2021/07/12 00:55:18;;;;;;;13.68;8.52;;;;;;;;;;4400530;32;20496;-54
2021/07/12 00:57:43;;;;;;;13.43;7.75;;;;;;;;;;4400731;32;20240;-54
2021/07/12 01:00:11;;;;;;;14.68;8.35;;;;;;;;;;4400884;32;20275;-55
2021/07/12 01:02:36;;;;;;;9.25;7.20;;;;;;;;;;4399373;32;20457;-55
2021/07/12 01:05:05;;;;;;;17.60;8.20;;;;;;;;;;4400978;32;20288;-55
2021/07/12 01:07:30;;;;;;;16.67;7.57;;;;;;;;;;4400573;32;20274;-55
2021/07/12 01:09:55;;;;;;;11.27;7.28;;;;;;;;;;4400949;32;20323;-54
2021/07/12 01:12:33;;;;;;;12.00;7.22;;;;;;;;;;4400824;32;20499;-54
2021/07/12 01:15:19;;;;;;;12.77;6.82;;;;;;;;;;4400660;32;20232;-54
2021/07/12 01:18:06;;;;;;;11.48;7.57;;;;;;;;;;4400275;32;20244;-54
2021/07/12 01:21:00;;;;;;;12.27;8.38;;;;;;;;;;4400751;32;20745;-54
2021/07/12 01:24:13;;;;;;;8.77;6.60;;;;;;;;;;4400669;32;20233;-54
2021/07/12 01:27:06;;;;;;;11.27;7.10;;;;;;;;;;4382786;32;20301;-54
2021/07/12 01:30:18;;;;;;;9.05;5.80;;;;;;;;;;4399204;32;20555;-54
2021/07/12 01:33:16;;;;;;;9.15;6.40;;;;;;;;;;4398735;32;20542;-54
2021/07/12 01:36:11;;;;;;;10.23;6.70;;;;;;;;;;4400215;32;20210;-54
2021/07/12 01:38:58;;;;;;;13.10;6.35;;;;;;;;;;4385831;32;20316;-54
2021/07/12 01:41:33;;;;;;;13.07;6.68;;;;;;;;;;4400606;32;20241;-54
2021/07/12 01:44:07;;;;;;;15.07;7.10;;;;;;;;;;4400693;32;20337;-55
2021/07/12 01:46:39;;;;;;;12.40;7.05;;;;;;;;;;4398922;32;20456;-54
2021/07/12 01:49:21;;;;;;;9.98;6.57;;;;;;;;;;4400119;32;20232;-54
2021/07/12 01:51:54;;;;;;;7.57;5.95;;;;;;;;;;4400546;32;20222;-54
2021/07/12 01:54:43;;;;;;;11.73;6.93;;;;;;;;;;4400125;32;20217;-54
2021/07/12 01:57:20;;;;;;;6.62;5.40;;;;;;;;;;4394242;32;20320;-54
2021/07/12 01:59:58;;;;;;;10.05;6.05;;;;;;;;;;4399891;32;20314;-54
2021/07/12 02:02:29;;;;;;;8.65;5.82;;;;;;;;;;4400204;32;20581;-53
2021/07/12 02:04:59;;;;;;;8.27;5.28;;;;;;;;;;4400145;32;20225;-54
2021/07/12 02:07:26;;;;;;;9.93;6.30;;;;;;;;;;4399695;32;20313;-54
2021/07/12 02:09:53;;;;;;;7.53;5.72;;;;;;;;;;4399829;32;20574;-54
2021/07/12 02:12:19;;;;;;;6.53;5.32;;;;;;;;;;4398437;32;20637;-54
2021/07/12 02:14:46;;;;;;;5.75;4.53;;;;;;;;;;4399670;32;20253;-54
2021/07/12 02:17:15;;;;;;;6.60;5.10;;;;;;;;;;4397294;32;20303;-54
2021/07/12 02:19:42;;;;;;;6.72;5.60;;;;;;;;;;4383486;32;20560;-54
2021/07/12 02:22:09;;;;;;;7.85;5.47;;;;;;;;;;4383464;32;20233;-54
2021/07/12 02:24:36;;;;;;;6.93;6.03;;;;;;;;;;4385454;32;20264;-53
2021/07/12 02:27:03;;;;;;;9.63;5.90;;;;;;;;;;4399403;32;20209;-55
2021/07/12 02:29:32;;;;;;;10.18;6.15;;;;;;;;;;4398619;32;20265;-54
2021/07/12 02:31:59;;;;;;;8.52;5.75;;;;;;;;;;4386007;32;20221;-53
2021/07/12 02:34:25;;;;;;;6.65;5.65;;;;;;;;;;4384450;32;20257;-53
2021/07/12 02:36:52;;;;;;;7.75;5.80;;;;;;;;;;4390281;32;20284;-55
2021/07/12 02:39:18;;;;;;;7.72;5.82;;;;;;;;;;4399224;32;20311;-56
2021/07/12 02:41:46;;;;;;;6.65;5.95;;;;;;;;;;4399278;32;20547;-55
2021/07/12 02:44:13;;;;;;;8.02;5.57;;;;;;;;;;4399518;32;20258;-54
2021/07/12 02:46:40;;;;;;;8.35;6.37;;;;;;;;;;4399415;32;20573;-55
2021/07/12 02:49:06;;;;;;;8.35;6.45;;;;;;;;;;4399358;32;20373;-54
2021/07/12 02:51:37;;;;;;;7.78;6.32;;;;;;;;;;4399055;32;20209;-55
2021/07/12 02:54:06;;;;;;;6.72;6.03;;;;;;;;;;4399282;32;20664;-55
2021/07/12 02:56:32;;;;;;;9.68;6.72;;;;;;;;;;4399404;32;20244;-55
2021/07/12 02:58:58;;;;;;;8.55;6.12;;;;;;;;;;4399197;32;20462;-55
2021/07/12 03:01:24;;;;;;;7.45;6.32;;;;;;;;;;4399119;32;20231;-54
2021/07/12 03:03:50;;;;;;;7.97;7.00;;;;;;;;;;4399214;32;20599;-54
2021/07/12 03:06:17;;;;;;;8.45;7.07;;;;;;;;;;4399571;32;20304;-55
2021/07/12 03:09:05;;;;;;;7.87;6.30;;;;;;;;;;4399287;32;20237;-55
2021/07/12 03:11:34;;;;;;;9.88;6.53;;;;;;;;;;4399123;32;20264;-55
2021/07/12 03:14:30;;;;;;;11.23;6.87;;;;;;;;;;4399193;32;20272;-54
2021/07/12 03:16:57;;;;;;;9.07;6.32;;;;;;;;;;4399155;32;20777;-54
2021/07/12 03:19:31;;;;;;;8.70;7.12;;;;;;;;;;4401026;32;20376;-56
2021/07/12 03:22:00;;;;;;;11.12;7.07;;;;;;;;;;4401958;32;20291;-55
2021/07/12 03:24:29;;;;;;;10.98;8.05;;;;;;;;;;4401985;32;20338;-55
2021/07/12 03:26:57;;;;;;;9.23;8.15;;;;;;;;;;4402113;32;20282;-55
2021/07/12 03:29:26;;;;;;;8.18;6.80;;;;;;;;;;4401809;32;20336;-55
2021/07/12 03:31:52;;;;;;;8.77;7.47;;;;;;;;;;4393600;32;20316;-55
2021/07/12 03:34:19;;;;;;;11.27;7.07;;;;;;;;;;4385732;32;20225;-56
2021/07/12 03:36:45;;;;;;;12.43;8.45;;;;;;;;;;4392287;32;20315;-55
2021/07/12 03:39:12;;;;;;;11.57;8.95;;;;;;;;;;4401676;32;20642;-54
2021/07/12 03:41:37;;;;;;;12.80;8.90;;;;;;;;;;4401777;32;20237;-54
2021/07/12 03:44:05;;;;;;;12.32;8.23;;;;;;;;;;4401824;32;20259;-55
2021/07/12 03:46:31;;;;;;;8.57;7.65;;;;;;;;;;4401878;32;20254;-55
2021/07/12 03:48:56;;;;;;;9.00;7.55;;;;;;;;;;4401922;32;20465;-55
2021/07/12 03:51:27;;;;;;;9.52;7.07;;;;;;;;;;4401986;32;20597;-54
2021/07/12 03:53:53;;;;;;;14.38;7.97;;;;;;;;;;4401787;32;20241;-54
2021/07/12 03:56:19;;;;;;;13.43;8.02;;;;;;;;;;4401609;32;20378;-55
2021/07/12 03:58:45;;;;;;;9.27;7.25;;;;;;;;;;4401762;32;20658;-54
2021/07/12 04:01:19;;;;;;;7.53;6.72;;;;;;;;;;4401743;32;20221;-54
2021/07/12 04:03:45;;;;;;;9.85;7.07;;;;;;;;;;4401849;32;20675;-54
2021/07/12 04:06:10;;;;;;;11.77;8.15;;;;;;;;;;4401851;32;20222;-55
2021/07/12 04:08:36;;;;;;;8.05;6.87;;;;;;;;;;4401389;32;20781;-55
2021/07/12 04:11:01;;;;;;;8.40;6.82;;;;;;;;;;4401415;32;20642;-55
2021/07/12 04:13:27;;;;;;;8.48;7.32;;;;;;;;;;4401750;32;20263;-54
2021/07/12 04:15:52;;;;;;;10.65;7.28;;;;;;;;;;4401618;32;20590;-55
2021/07/12 04:18:18;;;;;;;7.57;6.87;;;;;;;;;;4399430;32;20605;-55
2021/07/12 04:20:43;;;;;;;9.23;7.72;;;;;;;;;;4401516;32;20213;-54
2021/07/12 04:23:10;;;;;;;11.10;7.53;;;;;;;;;;4401261;32;20302;-54
2021/07/12 04:25:35;;;;;;;11.35;8.35;;;;;;;;;;4401217;32;20221;-54
2021/07/12 04:28:01;;;;;;;10.23;8.25;;;;;;;;;;4401197;32;20664;-54
2021/07/12 04:30:26;;;;;;;11.55;8.00;;;;;;;;;;4393795;32;20233;-54
2021/07/12 04:32:52;;;;;;;11.63;7.60;;;;;;;;;;4400759;32;20253;-55
2021/07/12 04:35:17;;;;;;;9.93;8.00;;;;;;;;;;4401637;32;20614;-55
2021/07/12 04:37:43;;;;;;;10.43;8.25;;;;;;;;;;4401412;32;20292;-54
2021/07/12 04:40:09;;;;;;;12.35;8.90;;;;;;;;;;4401255;32;20249;-54
2021/07/12 04:42:35;;;;;;;7.55;6.55;;;;;;;;;;4401098;32;20291;-55
2021/07/12 04:45:02;;;;;;;10.50;8.35;;;;;;;;;;4401068;32;20352;-55
2021/07/12 04:47:28;;;;;;;11.35;8.40;;;;;;;;;;4401116;32;20265;-54
2021/07/12 04:49:53;;;;;;;14.32;8.32;;;;;;;;;;4400891;32;20291;-54
2021/07/12 04:52:19;;;;;;;10.55;8.77;;;;;;;;;;4401354;32;20300;-54
2021/07/12 04:54:44;;;;;;;17.50;8.50;;;;;;;;;;4400756;32;20678;-54
2021/07/12 04:57:10;;;;;;;15.18;9.57;;;;;;;;;;4400972;32;20299;-54
2021/07/12 04:59:39;;;;;;;15.80;8.15;;;;;;;;;;4400757;32;20786;-54
2021/07/12 05:02:10;;;;;;;13.27;8.75;;;;;;;;;;4400677;32;20604;-55
2021/07/12 05:04:36;;;;;;;11.98;8.63;;;;;;;;;;4401055;32;20324;-55
2021/07/12 05:07:03;;;;;;;14.82;7.95;;;;;;;;;;4400809;32;20648;-56
2021/07/12 05:09:29;;;;;;;11.10;9.52;;;;;;;;;;4400338;32;20326;-55
2021/07/12 05:11:55;;;;;;;11.57;9.00;;;;;;;;;;4400887;32;20304;-55
2021/07/12 05:14:21;;;;;;;9.63;8.50;;;;;;;;;;4399023;32;20275;-55
2021/07/12 05:16:46;;;;;;;13.35;8.85;;;;;;;;;;4400610;32;20284;-56
2021/07/12 05:19:15;;;;;;;13.73;8.10;;;;;;;;;;4400179;32;20658;-55
2021/07/12 05:21:41;;;;;;;10.40;8.05;;;;;;;;;;4401071;32;20685;-54
2021/07/12 05:24:07;;;;;;;15.10;9.30;;;;;;;;;;4400713;32;20226;-54
2021/07/12 05:26:33;;;;;;;20.58;8.95;;;;;;;;;;4400876;32;20261;-54
2021/07/12 05:28:59;;;;;;;11.40;9.02;;;;;;;;;;4399760;32;20306;-55
2021/07/12 05:31:25;;;;;;;9.45;8.20;;;;;;;;;;4398556;32;20229;-54
2021/07/12 05:33:50;;;;;;;18.50;9.32;;;;;;;;;;4400784;32;20260;-54
2021/07/12 05:36:16;;;;;;;31.33;19.10;;;;;;;;;;4399821;32;20625;-54
2021/07/12 05:38:42;;;;;;;13.10;9.20;;;;;;;;;;4399781;32;20248;-55
2021/07/12 05:41:08;;;;;;;12.25;8.23;;;;;;;;;;4400670;32;20245;-54
2021/07/12 05:43:33;;;;;;;11.68;7.40;;;;;;;;;;4397935;32;20599;-54
2021/07/12 05:45:59;;;;;;;9.88;7.22;;;;;;;;;;4396580;32;20598;-54
2021/07/12 05:48:25;;;;;;;14.80;8.25;;;;;;;;;;4395871;32;20260;-54
2021/07/12 05:50:50;;;;;;;11.88;7.93;;;;;;;;;;4396371;32;20272;-54
2021/07/12 05:53:16;;;;;;;16.08;7.72;;;;;;;;;;4397284;32;20334;-54
2021/07/12 05:55:42;;;;;;;14.15;8.35;;;;;;;;;;4397327;32;20236;-54
2021/07/12 05:58:08;;;;;;;11.63;7.90;;;;;;;;;;4398235;32;20288;-54
2021/07/12 06:00:33;;;;;;;14.90;9.68;;;;;;;;;;4398902;32;20743;-55
2021/07/12 06:02:59;;;;;;;13.75;8.40;;;;;;;;;;4398309;32;20217;-54
2021/07/12 06:05:24;;;;;;;9.07;7.45;;;;;;;;;;4398651;32;20602;-55
2021/07/12 06:07:49;;;;;;;14.80;8.25;;;;;;;;;;4397555;32;20915;-56
2021/07/12 06:10:15;;;;;;;12.00;8.10;;;;;;;;;;4399193;32;20308;-55
2021/07/12 06:12:41;;;;;;;14.63;7.50;;;;;;;;;;4398458;32;20777;-54
2021/07/12 06:15:08;;;;;;;14.75;9.07;;;;;;;;;;4387676;32;20268;-55
2021/07/12 06:17:34;;;;;;;13.43;8.23;;;;;;;;;;4392300;32;20233;-54
2021/07/12 06:19:59;;;;;;;10.45;7.68;;;;;;;;;;4399367;32;20271;-54
2021/07/12 06:22:25;;;;;;;14.90;8.57;;;;;;;;;;4399868;32;20225;-54
2021/07/12 06:24:51;;;;;;;10.90;8.57;;;;;;;;;;4397653;32;20963;-54
2021/07/12 06:27:16;;;;;;;11.32;7.87;;;;;;;;;;4400008;32;20296;-53
2021/07/12 06:29:42;;;;;;;10.07;8.48;;;;;;;;;;4397571;32;20249;-54
2021/07/12 06:32:08;;;;;;;8.55;7.75;;;;;;;;;;4391491;32;20348;-54
2021/07/12 06:34:33;;;;;;;9.35;6.93;;;;;;;;;;4397956;32;20341;-55
2021/07/12 06:36:59;;;;;;;9.63;7.78;;;;;;;;;;4400122;32;20217;-55
2021/07/12 06:39:25;;;;;;;10.15;7.68;;;;;;;;;;4399093;32;20218;-55
2021/07/12 06:41:50;;;;;;;8.43;6.57;;;;;;;;;;4400101;32;20202;-54
2021/07/12 06:44:15;;;;;;;9.30;6.32;;;;;;;;;;4399170;32;20355;-55
2021/07/12 06:46:41;;;;;;;11.20;6.53;;;;;;;;;;4400283;32;20293;-55
2021/07/12 06:49:06;;;;;;;12.73;7.35;;;;;;;;;;4399728;32;20322;-54
2021/07/12 06:51:32;;;;;;;10.27;7.05;;;;;;;;;;4400111;32;20265;-54
2021/07/12 06:53:58;;;;;;;9.10;7.28;;;;;;;;;;4402049;32;20285;-54
2021/07/12 06:56:23;;;;;;;14.32;7.28;;;;;;;;;;4402974;32;20711;-55
2021/07/12 06:58:49;;;;;;;11.75;7.55;;;;;;;;;;4400914;32;20225;-55
2021/07/12 07:01:14;;;;;;;12.27;8.00;;;;;;;;;;4402722;32;20359;-55
2021/07/12 07:03:40;;;;;;;13.25;8.70;;;;;;;;;;4402544;32;20308;-54
2021/07/12 07:06:06;;;;;;;11.85;8.15;;;;;;;;;;4402711;32;20284;-55
2021/07/12 07:08:31;;;;;;;10.57;7.93;;;;;;;;;;4400871;32;20598;-53
2021/07/12 07:10:57;;;;;;;14.68;7.95;;;;;;;;;;4401908;32;20308;-55
2021/07/12 07:13:23;;;;;;;9.23;8.02;;;;;;;;;;4402248;32;20214;-55
2021/07/12 07:15:48;;;;;;;9.50;6.90;;;;;;;;;;4402973;32;20349;-55
2021/07/12 07:18:14;;;;;;;8.40;7.45;;;;;;;;;;4400314;32;20218;-54
2021/07/12 07:20:39;;;;;;;11.20;7.22;;;;;;;;;;4402610;32;20338;-55
2021/07/12 07:23:05;;;;;;;7.85;7.05;;;;;;;;;;4403060;32;20202;-54
2021/07/12 07:25:30;;;;;;;10.73;6.60;;;;;;;;;;4402590;32;20228;-55
2021/07/12 07:27:56;;;;;;;11.95;7.80;;;;;;;;;;4401915;32;20245;-54
2021/07/12 07:30:23;;;;;;;10.25;6.70;;;;;;;;;;4399878;32;20652;-54
2021/07/12 07:32:48;;;;;;;10.05;7.40;;;;;;;;;;4401726;32;20301;-56
2021/07/12 07:35:17;;;;;;;9.40;6.53;;;;;;;;;;4387829;32;20711;-55
2021/07/12 07:37:43;;;;;;;13.18;7.93;;;;;;;;;;4400796;32;20346;-55
2021/07/12 07:40:09;;;;;;;10.32;7.18;;;;;;;;;;4402758;32;20260;-55
2021/07/12 07:42:36;;;;;;;13.73;6.75;;;;;;;;;;4402611;32;20293;-55
2021/07/12 07:45:04;;;;;;;9.43;6.40;;;;;;;;;;4402509;32;20276;-55
2021/07/12 07:47:30;;;;;;;10.65;6.80;;;;;;;;;;4398978;32;20689;-54
2021/07/12 07:49:56;;;;;;;10.48;7.55;;;;;;;;;;4400229;32;20964;-56
2021/07/12 07:52:21;;;;;;;11.85;7.60;;;;;;;;;;4401475;32;20300;-55
2021/07/12 07:54:47;;;;;;;10.13;7.45;;;;;;;;;;4400100;32;20260;-55
2021/07/12 07:57:12;;;;;;;14.85;7.35;;;;;;;;;;4399428;32;20300;-55
2021/07/12 07:59:38;;;;;;;10.65;6.35;;;;;;;;;;4399729;32;20650;-55
2021/07/12 08:02:04;;;;;;;8.98;6.55;;;;;;;;;;4399340;32;20300;-55
2021/07/12 08:04:29;;;;;;;8.95;7.10;;;;;;;;;;4399987;32;20233;-55
2021/07/12 08:06:55;;;;;;;12.27;7.20;;;;;;;;;;4398919;32;20377;-55
2021/07/12 08:09:21;;;;;;;10.15;6.32;;;;;;;;;;4400695;32;20698;-55
2021/07/12 08:11:48;;;;;;;11.00;6.90;;;;;;;;;;4400544;32;20677;-56
2021/07/12 08:14:14;;;;;;;9.20;6.05;;;;;;;;;;4399426;32;20337;-55
2021/07/12 08:16:39;;;;;;;7.62;6.70;;;;;;;;;;4400241;32;20245;-55
2021/07/12 08:19:05;;;;;;;10.15;6.68;;;;;;;;;;4399312;32;20505;-54
2021/07/12 08:21:30;;;;;;;8.50;6.05;;;;;;;;;;4400377;32;20209;-54
2021/07/12 08:23:56;;;;;;;10.98;6.93;;;;;;;;;;4399834;32;20819;-54
2021/07/12 08:26:21;;;;;;;7.55;6.10;;;;;;;;;;4400225;32;20614;-54
2021/07/12 08:28:47;;;;;;;9.15;5.80;;;;;;;;;;4398459;32;20344;-54
2021/07/12 08:31:13;;;;;;;12.70;7.03;;;;;;;;;;4394129;32;20222;-55
2021/07/12 08:33:39;;;;;;;7.85;5.30;;;;;;;;;;4384365;32;20961;-54
2021/07/12 08:36:05;;;;;;;6.87;5.82;;;;;;;;;;4385847;32;20300;-56
2021/07/12 08:38:31;;;;;;;9.07;6.03;;;;;;;;;;4391330;32;20683;-55
2021/07/12 08:40:57;;;;;;;10.07;6.03;;;;;;;;;;4387730;32;20389;-55
2021/07/12 08:43:23;;;;;;;7.10;5.40;;;;;;;;;;4396478;32;20681;-55
2021/07/12 08:45:49;;;;;;;12.73;6.30;;;;;;;;;;4400378;32;20243;-55
2021/07/12 08:48:15;;;;;;;6.75;5.18;;;;;;;;;;4383691;32;20594;-55
2021/07/12 08:50:43;;;;;;;9.05;6.10;;;;;;;;;;4385556;32;20312;-55
2021/07/12 08:53:11;;;;;;;6.47;5.70;;;;;;;;;;4386137;32;20359;-56
2021/07/12 08:55:36;;;;;;;8.88;5.97;;;;;;;;;;4386288;32;20338;-56
2021/07/12 08:58:09;;;;;;;7.28;6.10;;;;;;;;;;4386125;32;20631;-55
2021/07/12 09:00:53;;;;;;;9.43;6.78;;;;;;;;;;4386282;32;20264;-54
2021/07/12 09:03:29;;;;;;;9.57;5.97;;;;;;;;;;4385959;32;20304;-55
2021/07/12 09:06:02;;;;;;;9.05;6.60;;;;;;;;;;4386324;32;20280;-55
2021/07/12 09:08:53;;;;;;;16.20;6.97;;;;;;;;;;4386149;32;20744;-54
2021/07/12 09:11:40;;;;;;;14.98;6.60;;;;;;;;;;4385756;32;20341;-55
2021/07/12 09:14:08;;;;;;;10.75;6.15;;;;;;;;;;4385897;32;20729;-56
2021/07/12 09:16:47;;;;;;;16.73;7.57;;;;;;;;;;4384747;32;20573;-55
2021/07/12 09:19:30;;;;;;;6.03;5.43;;;;;;;;;;4393219;32;20254;-54
2021/07/12 09:22:04;;;;;;;10.15;6.57;;;;;;;;;;4385635;32;20508;-55
2021/07/12 09:24:32;;;;;;;13.25;6.70;;;;;;;;;;4385964;32;20216;-55
2021/07/12 09:26:59;;;;;;;11.40;6.12;;;;;;;;;;4385818;32;20312;-54
2021/07/12 09:29:31;;;;;;;10.30;5.55;;;;;;;;;;4385932;32;20230;-55
2021/07/12 09:31:58;;;;;;;8.20;6.07;;;;;;;;;;4387445;32;20741;-55
2021/07/12 09:34:25;;;;;;;6.68;5.37;;;;;;;;;;4385877;32;20229;-55
2021/07/12 09:36:52;;;;;;;7.07;5.87;;;;;;;;;;4391508;32;20243;-55
2021/07/12 09:39:23;;;;;;;8.60;6.12;;;;;;;;;;4400276;32;20300;-55
2021/07/12 09:41:50;;;;;;;7.50;4.57;;;;;;;;;;4400904;32;20302;-55
2021/07/12 09:44:21;;;;;;;6.65;5.03;;;;;;;;;;4400674;32;20331;-55
2021/07/12 09:46:46;;;;;;;10.10;5.10;;;;;;;;;;4400850;32;20299;-55
2021/07/12 09:49:15;;;;;;;6.18;5.30;;;;;;;;;;4400660;32;20245;-55
2021/07/12 09:51:41;;;;;;;6.78;4.80;;;;;;;;;;4400504;32;20559;-56
2021/07/12 09:54:29;;;;;;;7.70;5.62;;;;;;;;;;4400615;32;20342;-55
2021/07/12 09:56:56;;;;;;;7.10;5.12;;;;;;;;;;4385413;32;20236;-55
2021/07/12 09:59:22;;;;;;;8.88;5.80;;;;;;;;;;4385485;32;20253;-55
2021/07/12 10:01:55;;;;;;;6.07;5.47;;;;;;;;;;4385291;32;20315;-56
2021/07/12 10:04:25;;;;;;;9.18;5.10;;;;;;;;;;4385517;32;20670;-56
2021/07/12 10:06:52;;;;;;;6.80;5.53;;;;;;;;;;4385376;32;20244;-56
2021/07/12 10:09:21;;;;;;;6.45;4.65;;;;;;;;;;4384891;32;20412;-56
2021/07/12 10:11:50;;;;;;;5.43;4.93;;;;;;;;;;4385311;32;20633;-55
2021/07/12 10:14:17;;;;;;;6.62;5.43;;;;;;;;;;4384974;32;20300;-55
2021/07/12 10:16:43;;;;;;;6.68;5.65;;;;;;;;;;4384737;32;20711;-55
2021/07/12 10:19:09;;;;;;;6.55;5.25;;;;;;;;;;4396496;32;20230;-55
2021/07/12 10:21:54;;;;;;;8.73;5.30;;;;;;;;;;4400312;32;20366;-56
2021/07/12 10:24:25;;;;;;;10.50;5.55;;;;;;;;;;4400004;32;20252;-55
2021/07/12 10:26:56;;;;;;;7.50;5.45;;;;;;;;;;4400173;32;20606;-55
2021/07/12 10:29:36;;;;;;;8.32;5.25;;;;;;;;;;4400478;32;20244;-56
2021/07/12 10:32:19;;;;;;;6.20;4.68;;;;;;;;;;4398365;32;20257;-56
2021/07/12 10:34:48;;;;;;;5.65;4.82;;;;;;;;;;4399962;32;20240;-56
2021/07/12 10:37:26;;;;;;;6.72;4.70;;;;;;;;;;4400048;32;20221;-56
2021/07/12 10:40:10;;;;;;;6.12;5.45;;;;;;;;;;4399983;32;20489;-56
2021/07/12 10:42:41;;;;;;;5.15;4.60;;;;;;;;;;4399781;32;20240;-56
2021/07/12 10:45:21;;;;;;;11.32;5.80;;;;;;;;;;4400010;32;20296;-56
2021/07/12 10:47:47;;;;;;;8.23;5.47;;;;;;;;;;4400024;32;20297;-54
2021/07/12 10:50:40;;;;;;;5.93;4.82;;;;;;;;;;4399835;32;20382;-55
2021/07/12 10:53:14;;;;;;;13.00;5.12;;;;;;;;;;4384698;32;20291;-55
2021/07/12 10:55:43;;;;;;;16.95;5.35;;;;;;;;;;4384303;32;20225;-56
2021/07/12 10:58:17;;;;;;;12.48;5.57;;;;;;;;;;4384875;32;20578;-56
2021/07/12 11:00:44;;;;;;;7.62;4.62;;;;;;;;;;4384858;32;20350;-55
2021/07/12 11:03:37;;;;;;;12.60;5.57;;;;;;;;;;4385268;32;20308;-55
2021/07/12 11:06:04;;;;;;;8.70;4.40;;;;;;;;;;4384460;32;20210;-56
2021/07/12 11:08:42;;;;;;;5.65;4.80;;;;;;;;;;4384353;32;20365;-55
2021/07/12 11:11:09;;;;;;;5.80;5.12;;;;;;;;;;4384786;32;20229;-55
2021/07/12 11:13:59;;;;;;;8.82;5.47;;;;;;;;;;4384817;32;20555;-55
2021/07/12 11:16:25;;;;;;;9.10;5.10;;;;;;;;;;4384929;32;20280;-56
2021/07/12 11:18:53;;;;;;;4.57;4.15;;;;;;;;;;4394265;32;20386;-55
2021/07/12 11:21:32;;;;;;;5.75;5.15;;;;;;;;;;4400322;32;20221;-55
2021/07/12 11:24:17;;;;;;;7.20;4.68;;;;;;;;;;4400204;32;20245;-55
2021/07/12 11:26:48;;;;;;;6.03;4.28;;;;;;;;;;4400192;32;20220;-56
2021/07/12 11:29:39;;;;;;;5.25;4.65;;;;;;;;;;4399868;32;20236;-56
2021/07/12 11:32:05;;;;;;;5.65;4.70;;;;;;;;;;4396713;32;20264;-55
2021/07/12 11:34:36;;;;;;;7.55;4.93;;;;;;;;;;4400082;32;20761;-56
2021/07/12 11:37:08;;;;;;;5.18;4.68;;;;;;;;;;4399521;32;20520;-56
2021/07/12 11:39:43;;;;;;;6.20;4.87;;;;;;;;;;4401775;32;20237;-56
2021/07/12 11:42:24;;;;;;;4.72;4.03;;;;;;;;;;4403197;32;20215;-56
2021/07/12 11:45:00;;;;;;;7.65;4.60;;;;;;;;;;4402815;32;20237;-56
2021/07/12 11:47:35;;;;;;;4.30;3.80;;;;;;;;;;4402361;32;20259;-55
2021/07/12 11:50:05;;;;;;;8.77;3.87;;;;;;;;;;4402423;32;20314;-56
2021/07/12 11:52:31;;;;;;;5.62;4.12;;;;;;;;;;4402363;32;20202;-56
2021/07/12 11:54:59;;;;;;;4.50;4.10;;;;;;;;;;4402143;32;20670;-57
2021/07/12 11:57:24;;;;;;;4.97;4.47;;;;;;;;;;4402447;32;20198;-56
2021/07/12 11:59:50;;;;;;;6.85;4.00;;;;;;;;;;4402468;32;20637;-56
2021/07/12 12:02:17;;;;;;;4.30;3.90;;;;;;;;;;4402394;32;20480;-55
2021/07/12 12:05:00;;;;;;;6.57;4.32;;;;;;;;;;4402018;32;20295;-55
2021/07/12 12:07:43;;;;;;;5.45;3.85;;;;;;;;;;4402075;32;20745;-55
2021/07/12 12:10:09;;;;;;;5.30;3.50;;;;;;;;;;4402385;32;20750;-55
2021/07/12 12:12:52;;;;;;;4.32;3.92;;;;;;;;;;4402001;32;20214;-55
2021/07/12 12:15:26;;;;;;;5.75;4.25;;;;;;;;;;4402299;32;20329;-56
2021/07/12 12:17:53;;;;;;;6.45;4.32;;;;;;;;;;4402097;32;20235;-56
2021/07/12 12:20:56;;;;;;;6.07;3.67;;;;;;;;;;4402720;32;20237;-56
2021/07/12 12:23:36;;;;;;;4.75;4.20;;;;;;;;;;4397595;32;20252;-56
2021/07/12 12:26:13;;;;;;;4.95;4.45;;;;;;;;;;4402411;32;20600;-55
2021/07/12 12:28:45;;;;;;;5.28;4.07;;;;;;;;;;4402748;32;20585;-55
2021/07/12 12:31:26;;;;;;;6.53;4.20;;;;;;;;;;4400947;32;20233;-55
2021/07/12 12:34:02;;;;;;;5.82;4.05;;;;;;;;;;4402288;32;20242;-56
2021/07/12 12:36:37;;;;;;;4.85;3.90;;;;;;;;;;4402284;32;20209;-56
2021/07/12 12:39:13;;;;;;;5.43;3.42;;;;;;;;;;4402104;32;20260;-56
2021/07/12 12:41:46;;;;;;;6.35;3.62;;;;;;;;;;4400629;32;20650;-55
2021/07/12 12:44:14;;;;;;;4.75;4.28;;;;;;;;;;4400911;32;20234;-56
2021/07/12 12:46:57;;;;;;;7.00;3.65;;;;;;;;;;4402380;32;20260;-55
2021/07/12 12:49:32;;;;;;;4.00;3.37;;;;;;;;;;4402401;32;20217;-56
2021/07/12 12:51:58;;;;;;;4.80;3.50;;;;;;;;;;4402027;32;20533;-56
2021/07/12 12:54:30;;;;;;;4.62;3.70;;;;;;;;;;4400843;32;20241;-56
2021/07/12 12:56:57;;;;;;;9.95;3.87;;;;;;;;;;4387071;32;20682;-56
2021/07/12 12:59:30;;;;;;;5.53;3.28;;;;;;;;;;4386671;32;20242;-56
2021/07/12 13:02:04;;;;;;;8.88;3.97;;;;;;;;;;4386967;32;20229;-55
2021/07/12 13:04:48;;;;;;;5.60;3.75;;;;;;;;;;4385755;32;20321;-55
2021/07/12 13:07:15;;;;;;;4.40;3.70;;;;;;;;;;4386684;32;20198;-56
2021/07/12 13:09:40;;;;;;;4.62;3.58;;;;;;;;;;4387198;32;20284;-56
2021/07/12 13:12:20;;;;;;;4.80;3.25;;;;;;;;;;4386722;32;20281;-56
2021/07/12 13:14:52;;;;;;;5.37;3.03;;;;;;;;;;4385080;32;20257;-56
2021/07/12 13:17:27;;;;;;;4.28;3.10;;;;;;;;;;4386452;32;20723;-56
2021/07/12 13:19:56;;;;;;;5.30;3.53;;;;;;;;;;4394464;32;20244;-56
2021/07/12 13:22:32;;;;;;;3.65;2.97;;;;;;;;;;4399842;32;21121;-56
2021/07/12 13:25:08;;;;;;;3.62;2.78;;;;;;;;;;4401136;32;20292;-56
2021/07/12 13:27:36;;;;;;;3.80;3.08;;;;;;;;;;4401649;32;20264;-55
2021/07/12 13:30:09;;;;;;;7.47;3.42;;;;;;;;;;4401925;32;20217;-55
2021/07/12 13:32:35;;;;;;;3.58;2.97;;;;;;;;;;4400125;32;20217;-57
2021/07/12 13:35:04;;;;;;;4.07;3.45;;;;;;;;;;4401360;32;20229;-55
2021/07/12 13:37:29;;;;;;;4.10;3.00;;;;;;;;;;4391455;32;20489;-57
2021/07/12 13:39:56;;;;;;;3.83;3.40;;;;;;;;;;4394907;32;20247;-56
2021/07/12 13:42:24;;;;;;;4.87;2.92;;;;;;;;;;4401670;32;20327;-56
2021/07/12 13:44:49;;;;;;;4.87;3.30;;;;;;;;;;4401369;32;20287;-56
2021/07/12 13:47:15;;;;;;;3.17;2.75;;;;;;;;;;4401659;32;20701;-56
2021/07/12 13:49:41;;;;;;;6.05;4.40;;;;;;;;;;4401470;32;20629;-56
2021/07/12 13:52:07;;;;;;;7.53;2.65;;;;;;;;;;4401424;32;20371;-56
2021/07/12 13:54:33;;;;;;;2.75;2.45;;;;;;;;;;4400419;32;20218;-56
2021/07/12 13:57:00;;;;;;;3.50;2.62;;;;;;;;;;4401396;32;20796;-57
2021/07/12 13:59:27;;;;;;;3.35;2.58;;;;;;;;;;4400672;32;20221;-56
2021/07/12 14:01:53;;;;;;;5.82;2.97;;;;;;;;;;4400411;32;20267;-57
2021/07/12 14:04:18;;;;;;;3.83;3.10;;;;;;;;;;4400823;32;20312;-56
2021/07/12 14:06:44;;;;;;;3.40;3.08;;;;;;;;;;4400494;32;20281;-56
2021/07/12 14:09:09;;;;;;;3.08;2.62;;;;;;;;;;4400314;32;20236;-56
2021/07/12 14:11:35;;;;;;;3.50;2.78;;;;;;;;;;4400389;32;20666;-55
2021/07/12 14:14:01;;;;;;;3.45;2.90;;;;;;;;;;4400759;32;20312;-56
2021/07/12 14:16:26;;;;;;;6.22;3.55;;;;;;;;;;4400276;32;20277;-55
2021/07/12 14:18:52;;;;;;;3.55;2.60;;;;;;;;;;4399291;32;20276;-55
2021/07/12 14:21:19;;;;;;;3.62;2.85;;;;;;;;;;4400280;32;20345;-56
2021/07/12 14:23:46;;;;;;;3.78;2.55;;;;;;;;;;4400492;32;20241;-56
2021/07/12 14:26:13;;;;;;;4.72;3.53;;;;;;;;;;4400297;32;20209;-56
2021/07/12 14:28:39;;;;;;;3.85;3.45;;;;;;;;;;4400581;32;20327;-57
2021/07/12 14:31:05;;;;;;;4.70;3.12;;;;;;;;;;4398992;32;20233;-56
2021/07/12 14:33:30;;;;;;;5.95;3.05;;;;;;;;;;4400539;32;20271;-56
2021/07/12 14:35:56;;;;;;;3.22;2.75;;;;;;;;;;4399020;32;20264;-56
2021/07/12 14:38:25;;;;;;;3.67;3.08;;;;;;;;;;4401053;32;20217;-56
2021/07/12 14:40:51;;;;;;;4.03;3.55;;;;;;;;;;4401022;32;20236;-56
2021/07/12 14:43:16;;;;;;;8.80;2.75;;;;;;;;;;4400390;32;20566;-56
2021/07/12 14:45:41;;;;;;;3.85;2.95;;;;;;;;;;4400205;32;20337;-56
2021/07/12 14:48:07;;;;;;;3.40;3.00;;;;;;;;;;4400494;32;20213;-56
2021/07/12 14:50:32;;;;;;;3.20;2.55;;;;;;;;;;4400203;32;20233;-56
2021/07/12 14:52:58;;;;;;;5.10;3.40;;;;;;;;;;4398806;32;20373;-56